Terminal Aerodrome Forecast
Issued by NWS

Home | Current Version | Previous Version | Text Only | Print | Product List | Glossary On
Versions: 1 2 3 4 5 6 7 8 9 10 11 12 13
014
FTUS46 KPDT 102339
TAFBDN
TAF
KBDN 102339Z 1100/1124 VRB06KT P6SM SCT050 OVC070
     FM110400 19004KT P6SM SCT070 OVC090
     FM111200 20004KT P6SM OVC060
     FM112100 VRB05KT P6SM OVC080=

USA.gov is the U.S. government's official web portal to all federal, state and local government web resources and services.